Time;durP1;ratioP1;P1;durP2;ratioP2;P2;SDS_P1;SDS_P2;PMS_P1;PMS_P2;Temp;Humidity;BMP_temperature;BMP_pressure;BME280_temperature;BME280_humidity;BME280_pressure;Samples;Min_cycle;Max_cycle;Signal;HPM_P1;HPM_P2
2023/09/05 00:00:04;;;;;;;10.98;7.18;;;16.20;99.90;;;;;;5049767;28;20529;-71
2023/09/05 00:02:29;;;;;;;11.38;7.53;;;16.20;99.90;;;;;;5046758;28;20072;-71
2023/09/05 00:04:56;;;;;;;10.20;6.65;;;16.10;99.90;;;;;;5053063;28;20454;-71
2023/09/05 00:07:22;;;;;;;11.90;6.53;;;16.10;99.90;;;;;;5039495;28;20054;-71
2023/09/05 00:09:48;;;;;;;9.77;6.57;;;16.10;99.90;;;;;;5059886;28;20047;-71
2023/09/05 00:12:14;;;;;;;14.30;6.50;;;16.10;99.90;;;;;;5061883;28;20658;-72
2023/09/05 00:14:40;;;;;;;9.55;6.45;;;16.00;99.90;;;;;;5047925;28;20729;-72
2023/09/05 00:17:06;;;;;;;11.60;7.10;;;16.00;99.90;;;;;;5065546;28;20040;-71
2023/09/05 00:19:31;;;;;;;10.57;6.85;;;16.00;99.90;;;;;;5053243;28;20116;-71
2023/09/05 00:21:57;;;;;;;9.88;7.68;;;15.90;99.90;;;;;;5049144;28;20559;-71
2023/09/05 00:24:31;;;;;;;9.38;7.30;;;15.90;99.90;;;;;;5056700;28;20039;-71
2023/09/05 00:27:07;;;;;;;10.52;6.97;;;15.90;99.90;;;;;;5064837;28;20048;-71
2023/09/05 00:29:33;;;;;;;9.55;7.07;;;15.80;99.90;;;;;;5047559;28;20289;-71
2023/09/05 00:31:59;;;;;;;10.77;7.30;;;15.80;99.90;;;;;;5082213;28;20048;-71
2023/09/05 00:34:30;;;;;;;10.60;7.32;;;15.70;99.90;;;;;;5057762;28;20137;-71
2023/09/05 00:36:58;;;;;;;10.52;7.30;;;15.80;99.90;;;;;;5048807;28;20049;-71
2023/09/05 00:39:26;;;;;;;11.63;7.75;;;15.70;99.90;;;;;;5051732;28;20048;-71
2023/09/05 00:41:51;;;;;;;8.73;6.97;;;15.70;99.90;;;;;;5059075;28;20055;-71
2023/09/05 00:44:17;;;;;;;9.80;7.63;;;15.70;99.90;;;;;;5060281;28;20055;-71
2023/09/05 00:46:47;;;;;;;9.82;6.82;;;15.70;99.90;;;;;;5082722;28;20512;-70
2023/09/05 00:49:15;;;;;;;11.13;7.28;;;15.70;99.90;;;;;;5060109;28;20049;-71
2023/09/05 00:51:50;;;;;;;9.60;7.15;;;15.70;99.90;;;;;;5059489;28;20044;-71
2023/09/05 00:54:17;;;;;;;10.25;7.65;;;15.60;99.90;;;;;;5059568;28;20045;-71
2023/09/05 00:56:47;;;;;;;11.50;6.95;;;15.50;99.90;;;;;;5054819;28;20068;-71
2023/09/05 00:59:14;;;;;;;11.63;7.60;;;15.50;99.90;;;;;;5062384;28;20467;-70
2023/09/05 01:01:39;;;;;;;9.38;7.10;;;15.40;99.90;;;;;;5050915;28;21645;-71
2023/09/05 01:04:06;;;;;;;9.73;7.75;;;15.40;99.90;;;;;;5042259;28;20151;-70
2023/09/05 01:07:00;;;;;;;10.65;7.20;;;15.40;99.90;;;;;;5060069;28;20063;-71
2023/09/05 01:09:44;;;;;;;9.48;7.10;;;15.40;99.90;;;;;;5052472;28;20398;-70
2023/09/05 01:12:10;;;;;;;9.40;6.82;;;15.40;99.90;;;;;;5036549;28;20603;-70
2023/09/05 01:14:36;;;;;;;9.90;7.57;;;15.30;99.90;;;;;;5055061;28;20055;-70
2023/09/05 01:17:02;;;;;;;9.63;7.03;;;15.30;99.90;;;;;;5084074;28;20060;-70
2023/09/05 01:19:35;;;;;;;10.80;8.70;;;15.30;99.90;;;;;;5053470;28;20045;-70
2023/09/05 01:22:24;;;;;;;12.85;7.32;;;15.20;99.90;;;;;;5081363;28;20048;-71
2023/09/05 01:24:50;;;;;;;9.98;7.53;;;15.10;99.90;;;;;;5041714;28;20048;-71
2023/09/05 01:27:19;;;;;;;10.65;7.82;;;15.10;99.90;;;;;;5058940;28;20459;-71
2023/09/05 01:29:46;;;;;;;11.10;7.50;;;15.10;99.90;;;;;;5058485;28;20048;-71
2023/09/05 01:32:12;;;;;;;10.00;7.43;;;15.10;99.90;;;;;;5041323;28;20060;-71
2023/09/05 01:34:39;;;;;;;9.75;7.68;;;15.10;99.90;;;;;;5040755;28;20044;-71
2023/09/05 01:37:04;;;;;;;10.43;7.65;;;15.00;99.90;;;;;;5061363;28;20448;-71
2023/09/05 01:39:30;;;;;;;15.68;8.43;;;15.00;99.90;;;;;;5045900;28;20133;-71
2023/09/05 01:41:58;;;;;;;10.50;7.43;;;15.00;99.90;;;;;;5060472;28;20114;-71
2023/09/05 01:44:25;;;;;;;12.50;7.93;;;15.00;99.90;;;;;;5067505;28;20060;-72
2023/09/05 01:46:50;;;;;;;11.10;8.65;;;14.90;99.90;;;;;;5049638;28;20036;-71
2023/09/05 01:49:16;;;;;;;10.20;7.53;;;14.90;99.90;;;;;;5051533;28;20772;-71
2023/09/05 01:51:45;;;;;;;10.80;7.65;;;14.90;99.90;;;;;;5067957;28;20061;-71
2023/09/05 01:54:11;;;;;;;10.63;7.55;;;14.90;99.90;;;;;;5049708;28;20501;-71
2023/09/05 01:56:37;;;;;;;10.80;7.70;;;14.90;99.90;;;;;;5066555;28;20155;-72
2023/09/05 01:59:02;;;;;;;10.88;7.53;;;14.90;99.90;;;;;;5039605;28;20460;-72
2023/09/05 02:01:28;;;;;;;8.65;6.45;;;14.90;99.90;;;;;;5058017;28;20037;-71
2023/09/05 02:03:54;;;;;;;9.25;7.10;;;14.90;99.90;;;;;;5060436;28;20218;-70
2023/09/05 02:06:20;;;;;;;13.50;8.07;;;14.90;99.90;;;;;;5064342;28;20040;-71
2023/09/05 02:08:49;;;;;;;12.90;8.77;;;14.80;99.90;;;;;;5066180;28;20098;-71
2023/09/05 02:11:15;;;;;;;11.85;8.57;;;14.80;99.90;;;;;;5045789;28;20041;-71
2023/09/05 02:13:41;;;;;;;11.65;7.53;;;14.80;99.90;;;;;;5064295;28;20413;-71
2023/09/05 02:16:07;;;;;;;13.23;7.55;;;14.80;99.90;;;;;;5051339;28;20447;-71
2023/09/05 02:18:33;;;;;;;11.93;7.90;;;14.80;99.90;;;;;;5068235;28;20059;-71
2023/09/05 02:21:01;;;;;;;12.05;7.82;;;14.80;99.90;;;;;;5050049;28;20437;-71
2023/09/05 02:23:27;;;;;;;12.90;8.20;;;14.80;99.90;;;;;;5050701;28;20036;-71
2023/09/05 02:26:02;;;;;;;13.98;8.25;;;14.80;99.90;;;;;;5066929;28;20048;-71
2023/09/05 02:28:28;;;;;;;12.65;8.60;;;14.80;99.90;;;;;;5050721;28;20633;-71
2023/09/05 02:30:55;;;;;;;11.88;8.10;;;14.80;99.90;;;;;;5067368;28;20069;-71
2023/09/05 02:33:21;;;;;;;13.23;8.10;;;14.80;99.90;;;;;;5067075;28;20382;-71
2023/09/05 02:35:48;;;;;;;10.85;8.18;;;14.80;99.90;;;;;;5046483;28;20227;-71
2023/09/05 02:38:14;;;;;;;10.25;7.95;;;14.80;99.90;;;;;;5051010;28;20409;-72
2023/09/05 02:40:46;;;;;;;12.27;7.75;;;14.80;99.90;;;;;;5065557;28;20228;-71
2023/09/05 02:43:15;;;;;;;12.43;8.73;;;14.80;99.90;;;;;;5066243;28;20086;-71
2023/09/05 02:45:49;;;;;;;10.55;7.78;;;14.80;99.90;;;;;;5068719;28;20101;-70
2023/09/05 02:48:15;;;;;;;11.80;8.40;;;14.80;99.90;;;;;;5059966;28;20045;-71
2023/09/05 02:50:41;;;;;;;12.10;8.52;;;14.80;99.90;;;;;;5065512;28;20055;-71
2023/09/05 02:53:06;;;;;;;12.73;9.00;;;14.80;99.90;;;;;;5063455;28;20170;-71
2023/09/05 02:55:34;;;;;;;10.85;8.60;;;14.80;99.90;;;;;;5053672;28;20040;-71
2023/09/05 02:58:00;;;;;;;12.48;9.82;;;14.80;99.90;;;;;;5061000;28;20120;-71
2023/09/05 03:00:26;;;;;;;14.32;10.07;;;14.80;99.90;;;;;;5063863;28;20041;-71
2023/09/05 03:02:52;;;;;;;14.48;9.73;;;14.80;99.90;;;;;;5060020;28;20409;-71
2023/09/05 03:05:18;;;;;;;12.07;9.25;;;14.70;99.90;;;;;;5057457;28;20132;-71
2023/09/05 03:07:45;;;;;;;13.57;9.88;;;14.70;99.90;;;;;;5057108;28;20052;-71
2023/09/05 03:10:11;;;;;;;15.02;10.77;;;14.70;99.90;;;;;;5061716;28;20140;-71
2023/09/05 03:12:36;;;;;;;13.85;10.15;;;14.70;99.90;;;;;;5079396;28;20052;-71
2023/09/05 03:15:03;;;;;;;14.98;10.77;;;14.70;99.90;;;;;;5067275;28;20716;-70
2023/09/05 03:17:28;;;;;;;13.98;10.02;;;14.70;99.90;;;;;;5082618;28;20041;-71
2023/09/05 03:19:54;;;;;;;13.10;10.43;;;14.70;99.90;;;;;;5060005;28;20043;-71
2023/09/05 03:22:20;;;;;;;16.13;10.52;;;14.60;99.90;;;;;;5065247;28;20482;-71
2023/09/05 03:24:45;;;;;;;14.50;9.93;;;14.60;99.90;;;;;;5067860;28;20041;-71
2023/09/05 03:27:13;;;;;;;12.73;9.10;;;14.70;99.90;;;;;;5039079;28;20052;-71
2023/09/05 03:29:38;;;;;;;14.40;9.95;;;14.60;99.90;;;;;;5065771;28;20121;-71
2023/09/05 03:32:04;;;;;;;12.30;9.52;;;14.60;99.90;;;;;;5044969;28;20455;-71
2023/09/05 03:34:34;;;;;;;12.00;8.68;;;14.70;99.90;;;;;;5049562;28;20055;-71
2023/09/05 03:37:00;;;;;;;12.50;9.35;;;14.60;99.90;;;;;;5060922;28;20582;-71
2023/09/05 03:39:25;;;;;;;15.73;10.98;;;14.60;99.90;;;;;;5048501;28;20140;-71
2023/09/05 03:41:51;;;;;;;14.68;10.60;;;14.70;99.90;;;;;;5067761;28;20050;-71
2023/09/05 03:44:17;;;;;;;13.60;9.88;;;14.60;99.90;;;;;;5066213;28;20871;-71
2023/09/05 03:46:44;;;;;;;16.05;11.10;;;14.60;99.90;;;;;;5066245;28;20097;-71
2023/09/05 03:49:11;;;;;;;15.85;10.43;;;14.60;99.90;;;;;;5066204;28;20052;-71
2023/09/05 03:51:37;;;;;;;13.20;10.35;;;14.60;99.90;;;;;;5065237;28;20072;-71
2023/09/05 03:54:02;;;;;;;13.38;10.13;;;14.60;99.90;;;;;;5039848;28;20083;-71
2023/09/05 03:56:28;;;;;;;13.93;10.65;;;14.50;99.90;;;;;;5058688;28;20135;-71
2023/09/05 03:58:54;;;;;;;13.75;10.50;;;14.50;99.90;;;;;;5049543;28;20863;-71
2023/09/05 04:01:20;;;;;;;16.33;10.00;;;14.50;99.90;;;;;;5048430;28;20071;-71
2023/09/05 04:03:46;;;;;;;15.60;10.32;;;14.50;99.90;;;;;;5049659;28;20044;-71
2023/09/05 04:06:15;;;;;;;16.70;10.18;;;14.50;99.90;;;;;;5064986;28;20056;-71
2023/09/05 04:08:40;;;;;;;14.27;10.10;;;14.50;99.90;;;;;;5065470;28;20547;-71
2023/09/05 04:11:06;;;;;;;17.00;10.80;;;14.50;99.90;;;;;;5065443;28;20072;-71
2023/09/05 04:13:32;;;;;;;14.80;10.85;;;14.50;99.90;;;;;;5058323;28;20510;-71
2023/09/05 04:16:04;;;;;;;15.55;10.88;;;14.50;99.90;;;;;;5052218;28;20063;-71
2023/09/05 04:18:30;;;;;;;13.95;10.40;;;14.50;99.90;;;;;;5059183;28;20091;-71
2023/09/05 04:20:57;;;;;;;14.07;10.35;;;14.50;99.90;;;;;;5057049;28;20079;-72
2023/09/05 04:23:24;;;;;;;14.68;10.00;;;14.40;99.90;;;;;;5047838;28;20499;-72
2023/09/05 04:25:57;;;;;;;14.10;10.02;;;14.40;99.90;;;;;;5056820;28;20050;-72
2023/09/05 04:28:24;;;;;;;13.05;10.23;;;14.40;99.90;;;;;;5044396;28;20182;-72
2023/09/05 04:30:51;;;;;;;15.15;9.73;;;14.40;99.90;;;;;;5047218;28;20223;-71
2023/09/05 04:33:17;;;;;;;12.52;9.20;;;14.40;99.90;;;;;;5050796;28;20052;-71
2023/09/05 04:35:44;;;;;;;14.88;10.80;;;14.40;99.90;;;;;;5053995;28;20067;-71
2023/09/05 04:38:09;;;;;;;13.27;10.52;;;14.40;99.90;;;;;;5085257;28;20048;-72
2023/09/05 04:40:35;;;;;;;14.48;11.50;;;14.40;99.90;;;;;;5035243;28;20432;-71
2023/09/05 04:43:03;;;;;;;12.93;10.65;;;14.40;99.90;;;;;;5031451;28;20033;-72
2023/09/05 04:45:29;;;;;;;17.10;11.50;;;14.40;99.90;;;;;;5065552;28;20116;-72
2023/09/05 04:47:55;;;;;;;20.38;11.32;;;14.30;99.90;;;;;;5043081;28;20066;-73
2023/09/05 04:50:21;;;;;;;12.30;9.88;;;14.30;99.90;;;;;;5024777;28;20516;-73
2023/09/05 04:52:47;;;;;;;16.95;11.32;;;14.30;99.90;;;;;;5055031;28;20036;-73
2023/09/05 04:55:13;;;;;;;16.23;10.40;;;14.30;99.90;;;;;;5059216;28;20049;-72
2023/09/05 04:57:42;;;;;;;16.08;11.60;;;14.30;99.90;;;;;;5034828;28;20041;-73
2023/09/05 05:00:13;;;;;;;17.15;10.82;;;14.30;99.90;;;;;;5037721;28;20067;-72
2023/09/05 05:02:39;;;;;;;17.65;11.32;;;14.30;99.90;;;;;;5061868;28;20475;-73
2023/09/05 05:05:06;;;;;;;16.40;11.50;;;14.30;99.90;;;;;;5042940;28;20824;-71
2023/09/05 05:07:32;;;;;;;14.10;11.30;;;14.30;99.90;;;;;;5053386;28;20215;-71
2023/09/05 05:09:58;;;;;;;15.20;10.73;;;14.30;99.90;;;;;;5051834;28;20131;-71
2023/09/05 05:12:24;;;;;;;15.57;11.50;;;14.30;99.90;;;;;;5060199;28;20040;-71
2023/09/05 05:14:50;;;;;;;15.48;11.35;;;14.30;99.90;;;;;;5048922;28;20599;-71
2023/09/05 05:17:15;;;;;;;15.95;11.00;;;14.20;99.90;;;;;;5042736;28;20045;-72
2023/09/05 05:19:41;;;;;;;17.00;11.10;;;14.30;99.90;;;;;;5061075;28;20139;-72
2023/09/05 05:22:07;;;;;;;15.52;11.20;;;14.20;99.90;;;;;;5048724;28;20502;-73
2023/09/05 05:24:33;;;;;;;15.95;10.93;;;14.20;99.90;;;;;;5048343;28;20044;-72
2023/09/05 05:26:59;;;;;;;14.77;10.70;;;14.20;99.90;;;;;;5032619;28;20048;-73
2023/09/05 05:29:26;;;;;;;18.05;11.95;;;14.30;99.90;;;;;;5084694;28;20040;-72
2023/09/05 05:31:52;;;;;;;15.07;11.13;;;14.20;99.90;;;;;;5052993;28;20091;-71
2023/09/05 05:34:17;;;;;;;16.50;11.48;;;14.20;99.90;;;;;;5054464;28;20041;-71
2023/09/05 05:36:43;;;;;;;15.05;11.20;;;14.20;99.90;;;;;;5033164;28;20048;-71
2023/09/05 05:39:09;;;;;;;15.50;12.30;;;14.20;99.90;;;;;;5051349;28;20901;-72
2023/09/05 05:41:35;;;;;;;17.55;11.95;;;14.20;99.90;;;;;;5057296;28;20076;-72
2023/09/05 05:44:01;;;;;;;14.57;11.27;;;14.20;99.90;;;;;;5054686;28;20059;-72
2023/09/05 05:46:26;;;;;;;16.83;11.45;;;14.20;99.90;;;;;;5049801;28;20067;-71
2023/09/05 05:48:52;;;;;;;14.10;11.07;;;14.20;99.90;;;;;;5058750;28;20836;-72
2023/09/05 05:51:18;;;;;;;18.33;12.00;;;14.30;99.90;;;;;;5055689;28;20417;-72
2023/09/05 05:53:46;;;;;;;16.75;10.73;;;14.40;99.90;;;;;;5043003;28;20058;-71
2023/09/05 05:56:12;;;;;;;14.57;10.30;;;14.40;99.90;;;;;;5057803;28;20105;-71
2023/09/05 05:58:39;;;;;;;15.45;10.95;;;14.50;99.90;;;;;;5057116;28;20050;-73
2023/09/05 06:01:07;;;;;;;15.73;10.10;;;14.50;99.90;;;;;;5040647;28;20048;-73
2023/09/05 06:03:36;;;;;;;12.68;9.90;;;14.50;99.90;;;;;;5058239;28;20036;-73
2023/09/05 06:06:03;;;;;;;14.85;10.75;;;14.50;99.90;;;;;;5053393;28;20076;-73
2023/09/05 06:08:29;;;;;;;14.57;10.52;;;14.50;99.90;;;;;;5054888;28;20055;-73
2023/09/05 06:10:55;;;;;;;14.10;10.57;;;14.50;99.90;;;;;;5055221;28;20148;-73
2023/09/05 06:13:21;;;;;;;19.13;11.00;;;14.50;99.90;;;;;;5054082;28;20036;-73
2023/09/05 06:15:47;;;;;;;14.40;10.50;;;14.60;99.90;;;;;;5043008;28;20055;-73
2023/09/05 06:18:13;;;;;;;17.95;11.57;;;14.60;99.90;;;;;;5046826;28;20098;-74
2023/09/05 06:20:39;;;;;;;15.20;11.07;;;14.60;99.90;;;;;;5043921;28;20048;-73
2023/09/05 06:23:05;;;;;;;16.08;12.02;;;14.60;99.90;;;;;;5075694;28;20044;-73
2023/09/05 06:25:31;;;;;;;14.50;11.02;;;14.70;99.90;;;;;;5045340;28;20087;-72
2023/09/05 06:27:57;;;;;;;14.57;10.38;;;14.70;99.90;;;;;;5036321;28;20056;-73
2023/09/05 06:30:22;;;;;;;14.32;10.63;;;14.80;99.90;;;;;;5050939;28;20098;-73
2023/09/05 06:32:49;;;;;;;14.48;11.40;;;14.80;99.90;;;;;;5048177;28;20250;-73
2023/09/05 06:35:15;;;;;;;15.00;10.90;;;14.80;99.90;;;;;;5079415;28;20055;-73
2023/09/05 06:37:41;;;;;;;15.13;11.45;;;14.80;99.90;;;;;;5044813;28;20053;-73
2023/09/05 06:40:15;;;;;;;16.88;11.65;;;14.90;99.90;;;;;;5042570;28;20045;-73
2023/09/05 06:42:42;;;;;;;17.30;11.18;;;15.00;99.90;;;;;;5058607;28;20773;-73
2023/09/05 06:45:09;;;;;;;13.38;10.80;;;15.00;99.90;;;;;;5050044;28;20048;-73
2023/09/05 06:47:35;;;;;;;19.35;11.93;;;15.10;99.90;;;;;;5053092;28;20036;-73
2023/09/05 06:50:03;;;;;;;14.02;10.73;;;15.10;99.90;;;;;;5084161;28;20036;-73
2023/09/05 06:52:28;;;;;;;15.43;11.50;;;15.20;99.90;;;;;;5052298;28;20095;-73
2023/09/05 06:54:54;;;;;;;13.50;10.73;;;15.20;99.90;;;;;;5052838;28;20478;-74
2023/09/05 06:57:20;;;;;;;13.18;10.98;;;15.30;99.90;;;;;;5038859;28;20572;-73
2023/09/05 06:59:46;;;;;;;13.32;10.05;;;15.30;99.90;;;;;;5054752;28;20533;-73
2023/09/05 07:02:11;;;;;;;13.43;10.18;;;15.40;99.90;;;;;;5055757;28;20053;-73
2023/09/05 07:04:40;;;;;;;17.50;9.95;;;15.40;99.90;;;;;;5054676;28;20768;-74
2023/09/05 07:07:06;;;;;;;12.82;9.40;;;15.50;99.90;;;;;;5068534;28;20123;-74
2023/09/05 07:09:35;;;;;;;14.50;10.18;;;15.60;99.90;;;;;;5037026;28;20109;-73
2023/09/05 07:12:03;;;;;;;13.48;9.90;;;15.60;99.90;;;;;;5056061;28;20040;-73
2023/09/05 07:14:30;;;;;;;13.07;9.57;;;15.70;99.90;;;;;;5035716;28;20091;-74
2023/09/05 07:16:56;;;;;;;11.85;9.20;;;15.70;99.90;;;;;;5054816;28;20096;-74
2023/09/05 07:19:22;;;;;;;12.73;10.05;;;15.80;99.90;;;;;;5057662;28;20048;-74
2023/09/05 07:21:48;;;;;;;13.23;9.32;;;15.90;99.90;;;;;;5050883;28;20740;-75
2023/09/05 07:24:15;;;;;;;12.13;9.18;;;16.10;99.90;;;;;;5052671;28;20052;-74
2023/09/05 07:26:42;;;;;;;15.80;9.57;;;16.20;99.90;;;;;;5052745;28;20048;-74
2023/09/05 07:29:10;;;;;;;13.98;8.63;;;16.30;99.90;;;;;;5056084;28;20658;-74
2023/09/05 07:31:37;;;;;;;10.65;8.50;;;16.50;99.90;;;;;;5046439;28;20037;-73
2023/09/05 07:34:04;;;;;;;12.77;8.20;;;16.70;99.90;;;;;;5029088;28;20045;-74
2023/09/05 07:36:31;;;;;;;13.05;8.38;;;16.80;99.90;;;;;;5071697;28;20037;-74
2023/09/05 07:38:58;;;;;;;11.25;7.78;;;17.10;99.90;;;;;;5049101;28;20524;-74
2023/09/05 07:41:24;;;;;;;12.52;8.40;;;17.30;99.90;;;;;;5064940;28;20047;-74
2023/09/05 07:43:50;;;;;;;10.80;7.97;;;17.40;99.90;;;;;;5034212;28;20461;-73
2023/09/05 07:46:16;;;;;;;12.27;8.07;;;17.70;99.90;;;;;;5065334;28;20043;-74
2023/09/05 07:48:42;;;;;;;12.23;7.63;;;17.80;99.90;;;;;;5048118;28;20045;-74
2023/09/05 07:51:08;;;;;;;10.13;6.78;;;18.00;99.90;;;;;;5049362;28;20051;-74
2023/09/05 07:53:35;;;;;;;13.15;7.32;;;18.10;99.90;;;;;;5032015;28;20049;-73
2023/09/05 07:56:03;;;;;;;9.93;7.22;;;18.30;99.90;;;;;;5032205;28;20052;-74
2023/09/05 07:58:28;;;;;;;9.82;7.03;;;18.40;99.90;;;;;;5048988;28;20079;-74
2023/09/05 08:00:55;;;;;;;11.77;7.72;;;18.60;99.90;;;;;;5046272;28;20130;-73
2023/09/05 08:03:21;;;;;;;9.23;6.82;;;18.70;99.90;;;;;;5055925;28;20040;-74
2023/09/05 08:05:48;;;;;;;11.02;6.60;;;18.90;99.90;;;;;;5052367;28;20044;-71
2023/09/05 08:08:15;;;;;;;8.73;6.10;;;19.00;99.90;;;;;;5052546;28;20079;-71
2023/09/05 08:10:41;;;;;;;9.00;6.05;;;19.10;99.90;;;;;;5052063;28;20045;-71
2023/09/05 08:13:12;;;;;;;7.47;5.18;;;19.30;99.90;;;;;;5050845;28;20091;-70
2023/09/05 08:15:38;;;;;;;11.07;5.38;;;19.40;99.90;;;;;;5038032;28;20546;-70
2023/09/05 08:18:04;;;;;;;9.00;5.10;;;19.50;99.90;;;;;;5052775;28;20045;-71
2023/09/05 08:20:30;;;;;;;10.32;5.45;;;19.60;99.90;;;;;;5034518;28;20486;-71
2023/09/05 08:22:56;;;;;;;8.13;5.85;;;19.70;99.90;;;;;;5053702;28;20044;-71
2023/09/05 08:25:24;;;;;;;8.85;5.55;;;19.90;99.90;;;;;;5038989;28;20147;-71
2023/09/05 08:27:50;;;;;;;8.15;5.03;;;20.00;99.90;;;;;;5033384;28;20143;-70
2023/09/05 08:30:16;;;;;;;12.18;4.63;;;20.10;99.90;;;;;;5032403;28;20525;-71
2023/09/05 08:32:43;;;;;;;7.05;4.95;;;20.20;99.90;;;;;;5048408;28;20033;-71
2023/09/05 08:35:09;;;;;;;7.70;3.97;;;20.30;99.90;;;;;;5070975;28;20040;-70
2023/09/05 08:37:36;;;;;;;7.32;4.28;;;20.50;99.90;;;;;;5035799;28;20140;-71
2023/09/05 08:40:03;;;;;;;8.38;4.57;;;20.60;99.90;;;;;;5048603;28;20056;-71
2023/09/05 08:42:32;;;;;;;8.23;4.47;;;20.70;99.90;;;;;;5038724;28;20084;-70
2023/09/05 08:44:59;;;;;;;8.90;4.55;;;20.80;99.90;;;;;;5038031;28;20075;-71
2023/09/05 08:47:31;;;;;;;6.57;4.15;;;20.90;99.90;;;;;;5040454;28;20044;-71
2023/09/05 08:49:59;;;;;;;6.72;3.58;;;21.00;99.90;;;;;;5056458;28;20079;-71
2023/09/05 08:52:33;;;;;;;6.53;4.25;;;21.10;99.90;;;;;;5046358;28;20086;-70
2023/09/05 08:54:59;;;;;;;6.32;3.72;;;21.20;99.90;;;;;;5058963;28;20036;-71
2023/09/05 08:57:27;;;;;;;7.78;3.35;;;21.30;99.90;;;;;;5052105;28;20123;-71
2023/09/05 08:59:56;;;;;;;5.25;3.22;;;21.30;99.90;;;;;;5049399;28;20059;-72
2023/09/05 09:02:22;;;;;;;7.82;3.47;;;21.40;99.90;;;;;;5053340;28;20037;-71
2023/09/05 09:04:57;;;;;;;9.27;3.03;;;21.50;99.90;;;;;;5049822;28;20037;-72
2023/09/05 09:07:27;;;;;;;6.53;3.50;;;21.60;99.90;;;;;;5081442;28;20580;-72
2023/09/05 09:09:54;;;;;;;7.55;3.40;;;21.70;99.90;;;;;;5037004;28;20057;-72
2023/09/05 09:12:30;;;;;;;5.63;3.22;;;21.80;99.90;;;;;;5055556;28;20037;-73
2023/09/05 09:15:09;;;;;;;6.85;3.38;;;21.90;99.90;;;;;;5047829;28;20566;-71
2023/09/05 09:17:36;;;;;;;6.35;3.05;;;21.90;99.90;;;;;;5055644;28;20477;-71
2023/09/05 09:20:05;;;;;;;5.32;2.88;;;22.00;99.90;;;;;;5057342;28;20114;-72
2023/09/05 09:22:31;;;;;;;4.93;2.70;;;22.10;99.90;;;;;;5050996;28;20367;-71
2023/09/05 09:24:57;;;;;;;6.63;2.88;;;22.20;99.90;;;;;;5057808;28;20048;-71
2023/09/05 09:27:23;;;;;;;6.57;2.47;;;22.30;99.90;;;;;;5050851;28;20116;-71
2023/09/05 09:29:55;;;;;;;6.55;2.78;;;22.40;99.90;;;;;;5060739;28;20036;-71
2023/09/05 09:32:22;;;;;;;5.38;2.70;;;22.50;99.90;;;;;;5049206;28;20404;-71
2023/09/05 09:34:50;;;;;;;6.70;2.75;;;22.60;99.90;;;;;;5047905;28;20044;-71
2023/09/05 09:37:25;;;;;;;8.20;2.78;;;22.60;99.90;;;;;;5047045;28;20056;-72
2023/09/05 09:40:01;;;;;;;6.15;2.60;;;22.70;99.90;;;;;;5047653;28;20144;-73
2023/09/05 09:42:27;;;;;;;9.30;3.45;;;22.80;99.90;;;;;;5048828;28;20052;-72
2023/09/05 09:44:54;;;;;;;5.38;2.75;;;22.90;99.90;;;;;;5049559;28;20442;-72
2023/09/05 09:47:21;;;;;;;5.32;3.00;;;22.90;99.90;;;;;;5050838;28;20134;-71
2023/09/05 09:49:51;;;;;;;8.43;3.10;;;22.90;99.90;;;;;;5048569;28;20040;-72
2023/09/05 09:52:20;;;;;;;;;;;23.00;99.90;;;;;;5054150;28;20466;-72
2023/09/05 09:54:47;;;;;;;7.28;3.10;;;23.10;99.90;;;;;;5040952;28;19973;-72
2023/09/05 09:58:03;;;;;;;9.15;2.80;;;23.10;99.90;;;;;;5041136;28;20101;-72
2023/09/05 10:00:32;;;;;;;6.93;2.72;;;23.20;99.90;;;;;;5041485;28;20179;-74
2023/09/05 10:03:00;;;;;;;6.55;2.60;;;23.20;99.90;;;;;;5036441;28;20086;-74
2023/09/05 10:05:26;;;;;;;7.07;2.20;;;23.30;99.90;;;;;;5086855;27;20078;-74
2023/09/05 10:07:54;;;;;;;6.80;2.80;;;23.40;99.90;;;;;;5061774;28;20583;-74
2023/09/05 10:10:20;;;;;;;5.95;2.60;;;23.40;99.90;;;;;;5049969;28;20047;-74
2023/09/05 10:12:46;;;;;;;6.07;2.50;;;23.50;99.90;;;;;;5052931;28;20044;-76
2023/09/05 10:15:14;;;;;;;5.43;2.38;;;23.60;99.90;;;;;;5038379;28;20509;-75
2023/09/05 10:17:44;;;;;;;6.70;2.40;;;23.60;99.90;;;;;;5052464;28;20047;-74
2023/09/05 10:20:14;;;;;;;6.13;2.70;;;23.70;99.90;;;;;;5062571;28;20505;-75
2023/09/05 10:22:40;;;;;;;4.63;2.58;;;23.70;99.90;;;;;;5068205;28;20140;-74
2023/09/05 10:25:09;;;;;;;6.68;2.65;;;23.80;99.90;;;;;;5043847;28;20137;-74
2023/09/05 10:27:35;;;;;;;7.78;2.17;;;23.80;99.90;;;;;;5062291;28;20040;-74
2023/09/05 10:30:01;;;;;;;5.40;2.40;;;23.90;99.90;;;;;;5056073;28;20392;-75
2023/09/05 10:32:27;;;;;;;8.23;2.42;;;24.00;99.90;;;;;;5054526;28;20040;-75
2023/09/05 10:34:55;;;;;;;5.95;2.38;;;24.10;99.90;;;;;;5059907;28;20037;-75
2023/09/05 10:37:34;;;;;;;5.32;2.50;;;24.10;99.90;;;;;;5056506;28;20127;-75
2023/09/05 10:40:09;;;;;;;5.57;2.00;;;24.10;99.90;;;;;;5052903;28;20044;-76
2023/09/05 10:42:41;;;;;;;4.70;2.13;;;24.20;99.90;;;;;;5056806;28;20708;-77
2023/09/05 10:45:22;;;;;;;4.70;1.92;;;24.30;99.90;;;;;;5039860;28;20044;-76
2023/09/05 10:47:53;;;;;;;8.07;2.75;;;24.30;99.90;;;;;;5059818;28;20050;-78
2023/09/05 10:50:20;;;;;;;4.93;2.13;;;24.40;99.90;;;;;;5050211;28;20776;-76
2023/09/05 10:52:50;;;;;;;6.28;2.25;;;24.40;99.90;;;;;;5050479;28;20044;-77
2023/09/05 10:55:29;;;;;;;7.65;2.72;;;24.60;99.90;;;;;;5034575;28;20055;-76
2023/09/05 10:57:56;;;;;;;5.00;1.92;;;24.60;99.90;;;;;;5082217;28;20046;-77
2023/09/05 11:00:26;;;;;;;6.40;1.80;;;24.60;99.90;;;;;;5054488;28;20109;-78
2023/09/05 11:02:56;;;;;;;5.10;1.85;;;24.70;99.90;;;;;;5057016;28;20044;-76
2023/09/05 11:05:26;;;;;;;6.47;2.10;;;24.80;99.90;;;;;;5053679;28;20052;-76
2023/09/05 11:07:55;;;;;;;8.25;2.20;;;24.90;99.90;;;;;;5047358;28;20052;-75
2023/09/05 11:10:47;;;;;;;6.97;2.13;;;24.90;99.90;;;;;;5047229;28;20110;-75
2023/09/05 11:13:17;;;;;;;4.70;2.03;;;25.00;99.90;;;;;;5052908;28;20056;-75
2023/09/05 11:15:43;;;;;;;3.67;1.70;;;25.10;99.90;;;;;;5044481;28;20036;-76
2023/09/05 11:18:12;;;;;;;6.13;2.33;;;25.10;99.90;;;;;;5052674;28;20525;-76
2023/09/05 11:20:39;;;;;;;5.32;2.00;;;25.30;99.90;;;;;;5055723;28;20055;-76
2023/09/05 11:23:21;;;;;;;4.65;2.00;;;25.20;99.90;;;;;;5034786;28;20086;-75
2023/09/05 11:25:55;;;;;;;4.60;2.00;;;25.30;99.90;;;;;;5070582;28;21452;-74
2023/09/05 11:28:23;;;;;;;4.68;1.80;;;25.30;99.90;;;;;;5033531;28;20057;-76
2023/09/05 11:30:52;;;;;;;5.15;1.88;;;25.40;99.90;;;;;;5035860;28;20052;-76
2023/09/05 11:33:19;;;;;;;6.63;2.03;;;25.40;99.90;;;;;;5051257;28;20089;-75
2023/09/05 11:35:46;;;;;;;4.97;1.90;;;25.50;99.90;;;;;;5048714;28;20048;-76
2023/09/05 11:38:16;;;;;;;5.65;1.83;;;25.50;99.90;;;;;;5042808;28;20539;-77
2023/09/05 11:40:57;;;;;;;5.25;1.90;;;25.60;99.90;;;;;;5053454;28;20076;-77
2023/09/05 11:43:23;;;;;;;8.48;1.88;;;25.60;99.90;;;;;;5054901;28;20507;-75
2023/09/05 11:45:57;;;;;;;4.25;1.85;;;25.60;99.90;;;;;;5074093;28;20047;-76
2023/09/05 11:48:26;;;;;;;4.75;1.90;;;25.70;99.90;;;;;;5053743;28;20056;-76
2023/09/05 11:50:52;;;;;;;4.75;2.00;;;25.80;99.90;;;;;;5060910;28;20048;-76
2023/09/05 11:53:20;;;;;;;4.18;1.80;;;25.90;99.90;;;;;;5041477;28;20048;-75
2023/09/05 11:55:47;;;;;;;5.63;1.75;;;25.90;99.90;;;;;;5047108;28;20045;-75
2023/09/05 11:58:16;;;;;;;3.78;1.80;;;26.00;99.90;;;;;;5051317;28;21813;-75
2023/09/05 12:00:50;;;;;;;3.30;1.58;;;26.00;99.90;;;;;;5051470;28;20036;-75
2023/09/05 12:03:17;;;;;;;5.45;1.77;;;26.10;99.90;;;;;;5059278;28;20120;-75
2023/09/05 12:05:51;;;;;;;4.80;1.92;;;26.10;99.90;;;;;;5040276;28;20036;-75
2023/09/05 12:08:21;;;;;;;3.30;1.60;;;26.20;99.90;;;;;;5041321;28;20497;-76
2023/09/05 12:10:51;;;;;;;3.97;2.03;;;26.20;99.90;;;;;;5041615;28;20549;-76
2023/09/05 12:13:34;;;;;;;5.68;1.90;;;26.30;99.90;;;;;;5040550;28;20319;-76
2023/09/05 12:16:00;;;;;;;4.88;1.70;;;26.30;99.90;;;;;;5051460;28;20513;-76
2023/09/05 12:18:25;;;;;;;4.32;1.92;;;26.40;99.90;;;;;;5059932;28;20059;-76
2023/09/05 12:20:57;;;;;;;3.90;1.58;;;26.40;99.90;;;;;;5056617;28;20401;-75
2023/09/05 12:23:25;;;;;;;3.97;2.13;;;26.40;99.90;;;;;;5055319;28;20041;-76
2023/09/05 12:25:54;;;;;;;5.07;1.50;;;26.50;99.90;;;;;;5058290;28;20170;-76
2023/09/05 12:28:22;;;;;;;5.00;1.63;;;26.50;99.90;;;;;;5058910;28;20049;-76
2023/09/05 12:30:49;;;;;;;3.75;1.88;;;26.50;99.90;;;;;;5057926;28;20070;-76
2023/09/05 12:33:16;;;;;;;6.38;1.80;;;26.60;99.90;;;;;;5039281;28;20049;-74
2023/09/05 12:35:43;;;;;;;3.78;1.70;;;26.60;99.90;;;;;;5058801;28;20413;-75
2023/09/05 12:38:11;;;;;;;3.60;1.65;;;26.70;99.90;;;;;;5056962;28;20087;-74
2023/09/05 12:40:37;;;;;;;3.30;1.70;;;26.70;99.90;;;;;;5059935;28;20133;-76